createdAt,value
2019-02-08T00:01:02.799Z,31.20
2019-02-08T00:03:31.474Z,29.03
2019-02-08T00:06:00.515Z,30.77
2019-02-08T00:08:29.310Z,28.23
2019-02-08T00:10:58.052Z,29.53
2019-02-08T00:13:26.759Z,28.93
2019-02-08T00:15:55.510Z,28.77
2019-02-08T00:18:24.176Z,28.33
2019-02-08T00:20:52.848Z,29.87
2019-02-08T00:23:27.036Z,29.03
2019-02-08T00:25:52.274Z,28.57
2019-02-08T00:28:21.078Z,30.10
2019-02-08T00:30:49.822Z,29.25
2019-02-08T00:33:18.601Z,30.52
2019-02-08T00:35:47.281Z,30.30
2019-02-08T00:38:16.002Z,31.40
2019-02-08T00:40:44.723Z,28.92
2019-02-08T00:43:13.499Z,30.90
2019-02-08T00:45:42.236Z,29.42
2019-02-08T00:48:11.030Z,32.63
2019-02-08T00:50:39.740Z,34.13
2019-02-08T00:53:08.440Z,33.08
2019-02-08T00:55:37.409Z,33.67
2019-02-08T00:58:06.178Z,33.10
2019-02-08T01:00:34.925Z,33.85
2019-02-08T01:03:03.849Z,32.93
2019-02-08T01:05:35.431Z,34.97
2019-02-08T01:08:04.610Z,36.13
2019-02-08T01:10:33.366Z,33.38
2019-02-08T01:13:05.374Z,35.58
2019-02-08T01:15:34.119Z,34.57
2019-02-08T01:18:02.900Z,35.28
2019-02-08T01:20:31.561Z,33.40
2019-02-08T01:23:00.286Z,34.40
2019-02-08T01:25:28.952Z,33.33
2019-02-08T01:27:57.562Z,33.08
2019-02-08T01:30:27.211Z,34.45
2019-02-08T01:32:55.898Z,33.18
2019-02-08T01:35:25.052Z,31.27
2019-02-08T01:37:54.072Z,29.80
2019-02-08T01:40:26.629Z,33.10
2019-02-08T01:42:55.360Z,32.55
2019-02-08T01:45:24.940Z,31.68
2019-02-08T01:47:53.646Z,27.20
2019-02-08T01:50:23.266Z,29.30
2019-02-08T01:52:52.138Z,30.92
2019-02-08T01:55:20.910Z,29.67
2019-02-08T01:57:50.220Z,30.35
2019-02-08T02:00:20.301Z,30.52
2019-02-08T02:02:49.014Z,33.05
2019-02-08T02:05:17.838Z,28.05
2019-02-08T02:07:46.618Z,31.23
2019-02-08T02:10:28.697Z,29.75
2019-02-08T02:12:57.756Z,29.60
2019-02-08T02:15:26.788Z,30.35
2019-02-08T02:17:55.585Z,29.27
2019-02-08T02:20:25.315Z,32.25
2019-02-08T02:22:54.010Z,34.23
2019-02-08T02:25:22.848Z,32.05
2019-02-08T02:27:51.530Z,33.60
2019-02-08T02:30:24.420Z,31.40
2019-02-08T02:32:53.182Z,32.80
2019-02-08T02:35:21.896Z,32.08
2019-02-08T02:37:50.584Z,31.05
2019-02-08T02:40:20.170Z,30.80
2019-02-08T02:42:48.917Z,32.27
2019-02-08T02:45:19.236Z,29.42
2019-02-08T02:47:47.969Z,29.37
2019-02-08T02:50:16.732Z,30.25
2019-02-08T02:52:45.643Z,27.77
2019-02-08T02:55:14.550Z,30.88
2019-02-08T02:57:44.702Z,31.05
2019-02-08T03:00:17.832Z,29.87
2019-02-08T03:02:46.547Z,28.63
2019-02-08T03:05:15.433Z,28.30
2019-02-08T03:07:44.147Z,26.40
2019-02-08T03:10:13.668Z,26.50
2019-02-08T03:12:42.363Z,27.50
2019-02-08T03:15:11.364Z,27.95
2019-02-08T03:17:40.144Z,27.47
2019-02-08T03:20:10.047Z,26.43
2019-02-08T03:22:38.736Z,27.10
2019-02-08T03:25:07.844Z,27.80
2019-02-08T03:27:36.545Z,27.13
2019-02-08T03:30:07.035Z,27.60
2019-02-08T03:32:35.821Z,27.23
2019-02-08T03:35:05.711Z,26.10
2019-02-08T03:37:34.402Z,26.73
2019-02-08T03:40:03.037Z,27.20
2019-02-08T03:42:31.802Z,26.53
2019-02-08T03:45:00.439Z,23.47
2019-02-08T03:47:29.106Z,22.63
2019-02-08T03:49:57.758Z,23.73
2019-02-08T03:52:26.465Z,23.73
2019-02-08T03:54:55.153Z,23.80
2019-02-08T03:57:23.859Z,23.57
2019-02-08T03:59:52.524Z,23.13
2019-02-08T04:02:21.251Z,23.37
2019-02-08T04:04:50.034Z,23.73
2019-02-08T04:07:18.870Z,23.10
2019-02-08T04:09:47.672Z,24.07
2019-02-08T04:12:16.453Z,24.57
2019-02-08T04:14:45.160Z,22.57
2019-02-08T04:17:13.894Z,24.83
2019-02-08T04:19:42.585Z,24.13
2019-02-08T04:22:11.257Z,23.13
2019-02-08T04:24:40.000Z,24.13
2019-02-08T04:27:08.718Z,24.70
2019-02-08T04:29:37.436Z,24.17
2019-02-08T04:32:06.118Z,23.97
2019-02-08T04:34:34.831Z,23.80
2019-02-08T04:37:03.499Z,23.20
2019-02-08T04:39:32.217Z,22.97
2019-02-08T04:42:00.946Z,23.47
2019-02-08T04:44:29.640Z,22.60
2019-02-08T04:46:58.396Z,23.03
2019-02-08T04:49:27.114Z,22.47
2019-02-08T04:51:55.822Z,23.03
2019-02-08T04:54:24.823Z,22.03
2019-02-08T04:56:53.608Z,21.67
2019-02-08T04:59:22.326Z,22.17
2019-02-08T05:01:51.054Z,21.03
2019-02-08T05:04:19.767Z,22.97
2019-02-08T05:06:48.632Z,21.53
2019-02-08T05:09:17.270Z,21.80
2019-02-08T05:11:45.904Z,22.47
2019-02-08T05:14:14.583Z,21.67
2019-02-08T05:16:43.274Z,20.93
2019-02-08T05:19:11.950Z,21.67
2019-02-08T05:21:40.748Z,20.97
2019-02-08T05:24:09.451Z,22.63
2019-02-08T05:26:38.191Z,21.20
2019-02-08T05:29:06.847Z,21.50
2019-02-08T05:31:35.540Z,20.60
2019-02-08T05:34:04.594Z,20.70
2019-02-08T05:36:33.240Z,21.80
2019-02-08T05:39:01.822Z,20.57
2019-02-08T05:41:30.462Z,21.20
2019-02-08T05:43:59.125Z,20.23
2019-02-08T05:46:27.805Z,21.20
2019-02-08T05:48:56.501Z,20.67
2019-02-08T05:51:25.212Z,20.27
2019-02-08T05:53:53.914Z,21.27
2019-02-08T05:56:22.476Z,20.23
2019-02-08T05:58:51.200Z,21.50
2019-02-08T06:01:19.946Z,20.37
2019-02-08T06:03:48.629Z,21.53
2019-02-08T06:06:17.344Z,21.47
2019-02-08T06:08:46.006Z,18.93
2019-02-08T06:11:15.518Z,20.70
2019-02-08T06:13:44.177Z,19.57
2019-02-08T06:16:12.914Z,20.43
2019-02-08T06:18:41.726Z,20.70
2019-02-08T06:21:10.416Z,18.93
2019-02-08T06:23:39.169Z,21.93
2019-02-08T06:26:08.084Z,19.97
2019-02-08T06:28:36.848Z,20.27
2019-02-08T06:31:05.644Z,20.37
2019-02-08T06:33:34.474Z,20.27
2019-02-08T06:36:03.226Z,20.53
2019-02-08T06:38:31.944Z,18.27
2019-02-08T06:41:00.645Z,19.93
2019-02-08T06:43:29.340Z,19.47
2019-02-08T06:45:58.057Z,19.07
2019-02-08T06:48:26.726Z,18.97
2019-02-08T06:50:55.416Z,20.60
2019-02-08T06:53:24.138Z,19.27
2019-02-08T06:55:53.982Z,18.57
2019-02-08T06:58:36.098Z,20.73
2019-02-08T07:01:24.056Z,19.90
2019-02-08T07:04:11.294Z,19.83
2019-02-08T07:06:57.722Z,21.30
2019-02-08T07:09:54.704Z,19.63
2019-02-08T07:12:41.034Z,19.07
2019-02-08T07:15:38.055Z,19.03
2019-02-08T07:18:41.061Z,19.23
2019-02-08T07:21:46.796Z,19.33
2019-02-08T07:24:27.691Z,18.03
2019-02-08T07:27:16.499Z,19.53
2019-02-08T07:30:02.848Z,17.93
2019-02-08T07:32:51.661Z,17.97
2019-02-08T07:35:29.554Z,15.83
2019-02-08T07:38:24.187Z,16.57
2019-02-08T07:41:14.412Z,17.47
2019-02-08T07:44:08.270Z,16.53
2019-02-08T07:46:43.759Z,17.40
2019-02-08T07:49:31.606Z,16.00
2019-02-08T07:52:28.280Z,16.30
2019-02-08T07:55:05.962Z,14.90
2019-02-08T07:57:59.091Z,16.67
2019-02-08T08:00:58.779Z,16.67
2019-02-08T08:04:01.792Z,15.40
2019-02-08T08:06:51.681Z,15.60
2019-02-08T08:09:35.414Z,16.37
2019-02-08T08:12:26.561Z,15.23
2019-02-08T08:15:20.408Z,14.87
2019-02-08T08:18:08.208Z,16.17
2019-02-08T08:20:54.516Z,15.47
2019-02-08T08:23:46.315Z,15.57
2019-02-08T08:26:32.672Z,14.83
2019-02-08T08:29:04.933Z,15.63
2019-02-08T08:31:54.366Z,15.93
2019-02-08T08:34:30.817Z,14.23
2019-02-08T08:37:08.197Z,16.20
2019-02-08T08:39:58.948Z,16.10
2019-02-08T08:42:49.448Z,15.23
2019-02-08T08:45:28.315Z,16.63
2019-02-08T08:48:03.863Z,15.00
2019-02-08T08:50:50.230Z,15.83
2019-02-08T08:53:41.081Z,17.77
2019-02-08T08:56:33.922Z,15.43
2019-02-08T08:59:19.143Z,13.53
2019-02-08T09:02:06.974Z,12.77
2019-02-08T09:04:54.788Z,12.03
2019-02-08T09:07:45.345Z,11.23
2019-02-08T09:10:35.935Z,11.23
2019-02-08T09:13:29.492Z,11.37
2019-02-08T09:16:23.294Z,11.23
2019-02-08T09:19:10.904Z,10.83
2019-02-08T09:22:04.462Z,11.43
2019-02-08T09:25:07.197Z,11.40
2019-02-08T09:27:48.113Z,11.17
2019-02-08T09:30:30.092Z,9.87
2019-02-08T09:33:22.925Z,9.40
2019-02-08T09:36:09.135Z,8.60
2019-02-08T09:39:04.300Z,9.10
2019-02-08T09:41:50.467Z,7.87
2019-02-08T09:44:33.206Z,7.77
2019-02-08T09:47:20.998Z,6.83
2019-02-08T09:50:09.929Z,7.03
2019-02-08T09:52:53.008Z,7.37
2019-02-08T09:55:42.275Z,6.53
2019-02-08T09:58:28.926Z,6.87
2019-02-08T10:01:09.402Z,6.67
2019-02-08T10:03:47.961Z,6.73
2019-02-08T10:06:41.915Z,5.97
2019-02-08T10:09:32.701Z,5.60
2019-02-08T10:12:20.510Z,6.03
2019-02-08T10:15:06.873Z,5.57
2019-02-08T10:17:53.425Z,4.90
2019-02-08T10:20:34.874Z,5.33
2019-02-08T10:23:25.736Z,6.03
2019-02-08T10:26:22.353Z,5.70
2019-02-08T10:29:25.379Z,5.37
2019-02-08T10:32:19.312Z,5.40
2019-02-08T10:34:57.397Z,4.83
2019-02-08T10:37:45.216Z,4.90
2019-02-08T10:40:33.004Z,5.07
2019-02-08T10:43:19.250Z,4.90
2019-02-08T10:46:05.441Z,4.50
2019-02-08T10:48:52.074Z,4.93
2019-02-08T10:51:48.978Z,4.60
2019-02-08T10:54:36.824Z,5.30
2019-02-08T10:57:24.553Z,4.43
2019-02-08T11:00:06.063Z,4.30
2019-02-08T11:02:59.693Z,4.53
2019-02-08T11:05:46.889Z,3.30
2019-02-08T11:08:33.147Z,3.30
2019-02-08T11:11:19.324Z,4.00
2019-02-08T11:14:05.882Z,3.43
2019-02-08T11:16:59.377Z,3.00
2019-02-08T11:19:27.291Z,3.27
2019-02-08T11:21:56.064Z,3.40
2019-02-08T11:24:25.226Z,3.23
2019-02-08T11:26:54.535Z,3.13
2019-02-08T11:29:23.504Z,3.00
2019-02-08T11:31:52.187Z,3.40
2019-02-08T11:34:20.858Z,3.50
2019-02-08T11:36:49.672Z,3.20
2019-02-08T11:39:19.223Z,3.60
2019-02-08T11:41:48.240Z,3.40
2019-02-08T11:44:17.598Z,3.43
2019-02-08T11:46:46.383Z,3.07
2019-02-08T11:49:15.036Z,3.20
2019-02-08T11:51:43.661Z,2.87
2019-02-08T11:54:12.414Z,3.37
2019-02-08T11:56:41.097Z,3.00
2019-02-08T11:59:09.791Z,3.00
2019-02-08T12:01:43.490Z,2.87
2019-02-08T12:04:12.150Z,2.63
2019-02-08T12:06:40.836Z,2.60
2019-02-08T12:09:10.584Z,3.30
2019-02-08T12:11:39.296Z,3.10
2019-02-08T12:14:07.992Z,3.17
2019-02-08T12:16:36.694Z,3.40
2019-02-08T12:19:05.432Z,3.20
2019-02-08T12:21:34.270Z,2.50
2019-02-08T12:24:03.115Z,3.27
2019-02-08T12:26:37.676Z,2.83
2019-02-08T12:29:03.197Z,3.30
2019-02-08T12:31:31.886Z,3.50
2019-02-08T12:34:00.555Z,3.67
2019-02-08T12:36:29.241Z,3.30
2019-02-08T12:38:57.872Z,2.90
2019-02-08T12:41:26.554Z,3.20
2019-02-08T12:43:55.287Z,3.27
2019-02-08T12:46:24.022Z,3.10
2019-02-08T12:48:52.652Z,3.10
2019-02-08T12:51:21.296Z,3.50
2019-02-08T12:53:49.949Z,2.60
2019-02-08T12:56:18.647Z,3.47
2019-02-08T12:58:47.358Z,2.77
2019-02-08T13:01:16.072Z,3.23
2019-02-08T13:03:44.764Z,3.10
2019-02-08T13:06:32.805Z,2.43
2019-02-08T13:09:01.486Z,2.97
2019-02-08T13:11:30.229Z,3.20
2019-02-08T13:13:58.916Z,2.67
2019-02-08T13:16:27.628Z,2.70
2019-02-08T13:18:56.339Z,2.70
2019-02-08T13:21:25.097Z,2.87
2019-02-08T13:23:53.752Z,2.80
2019-02-08T13:26:22.434Z,2.70
2019-02-08T13:28:51.152Z,2.57
2019-02-08T13:31:19.812Z,2.67
2019-02-08T13:33:48.452Z,2.90
2019-02-08T13:36:17.180Z,3.00
2019-02-08T13:38:45.871Z,2.73
2019-02-08T13:41:14.574Z,3.03
2019-02-08T13:43:43.230Z,2.90
2019-02-08T13:46:11.867Z,2.90
2019-02-08T13:48:40.493Z,2.90
2019-02-08T13:51:09.138Z,2.50
2019-02-08T13:53:37.746Z,2.80
2019-02-08T13:56:06.531Z,3.00
2019-02-08T13:58:35.232Z,2.40
2019-02-08T14:01:04.003Z,2.57
2019-02-08T14:03:32.661Z,2.77
2019-02-08T14:06:02.280Z,3.10
2019-02-08T14:08:31.069Z,2.47
2019-02-08T14:10:59.822Z,2.80
2019-02-08T14:13:28.560Z,2.60
2019-02-08T14:15:57.218Z,2.43
2019-02-08T14:18:25.912Z,2.43
2019-02-08T14:20:54.599Z,2.30
2019-02-08T14:23:23.177Z,2.00
2019-02-08T14:25:51.825Z,2.27
2019-02-08T14:28:20.563Z,1.50
2019-02-08T14:30:49.511Z,1.90
2019-02-08T14:33:18.117Z,2.00
2019-02-08T14:35:46.774Z,2.27
2019-02-08T14:38:17.470Z,2.27
2019-02-08T14:40:46.144Z,1.60
2019-02-08T14:43:14.848Z,1.60
2019-02-08T14:45:43.518Z,1.73
2019-02-08T14:48:12.226Z,1.93
2019-02-08T14:50:40.953Z,1.90
2019-02-08T14:53:09.618Z,2.57
2019-02-08T14:55:38.384Z,1.77
2019-02-08T14:58:07.324Z,1.70
2019-02-08T15:00:36.002Z,1.90
2019-02-08T15:03:04.793Z,2.20
2019-02-08T15:05:33.432Z,1.90
2019-02-08T15:08:02.121Z,2.77
2019-02-08T15:10:32.193Z,1.70
2019-02-08T15:13:01.136Z,1.77
2019-02-08T15:15:29.872Z,1.80
2019-02-08T15:17:58.513Z,2.23
2019-02-08T15:20:28.280Z,2.10
2019-02-08T15:22:57.078Z,1.60
2019-02-08T15:25:25.784Z,2.60
2019-02-08T15:27:54.401Z,2.30
2019-02-08T15:30:23.897Z,2.00
2019-02-08T15:32:52.536Z,2.10
2019-02-08T15:35:21.960Z,2.07
2019-02-08T15:37:50.614Z,2.00
2019-02-08T15:40:24.194Z,1.63
2019-02-08T15:42:52.858Z,2.13
2019-02-08T15:45:21.562Z,2.37
2019-02-08T15:47:50.373Z,2.27
2019-02-08T15:50:19.217Z,2.97
2019-02-08T15:52:47.932Z,2.50
2019-02-08T15:55:18.027Z,2.57
2019-02-08T15:57:46.722Z,2.47
2019-02-08T16:00:16.962Z,2.40
2019-02-08T16:02:45.637Z,2.47
2019-02-08T16:05:14.866Z,2.20
2019-02-08T16:07:43.563Z,2.90
2019-02-08T16:10:12.240Z,2.87
2019-02-08T16:12:40.983Z,2.97
2019-02-08T16:15:11.604Z,2.57
2019-02-08T16:17:40.362Z,2.40
2019-02-08T16:20:09.202Z,3.03
2019-02-08T16:22:37.914Z,2.90
2019-02-08T16:25:06.909Z,2.73
2019-02-08T16:27:39.978Z,3.17
2019-02-08T16:30:09.080Z,3.33
2019-02-08T16:32:37.826Z,2.80
2019-02-08T16:35:06.527Z,2.90
2019-02-08T16:37:35.276Z,2.73
2019-02-08T16:40:05.198Z,3.33
2019-02-08T16:42:33.890Z,3.67
2019-02-08T16:45:02.743Z,3.33
2019-02-08T16:47:31.457Z,3.23
2019-02-08T16:50:00.270Z,3.33
2019-02-08T16:52:28.841Z,2.80
2019-02-08T16:54:57.516Z,3.43
2019-02-08T16:57:26.166Z,2.87
2019-02-08T16:59:54.840Z,3.13
2019-02-08T17:02:23.544Z,2.50
2019-02-08T17:04:52.262Z,3.10
2019-02-08T17:07:20.850Z,3.37
2019-02-08T17:09:49.576Z,3.73
2019-02-08T17:12:18.268Z,3.23
2019-02-08T17:14:46.858Z,2.80
2019-02-08T17:17:15.509Z,3.43
2019-02-08T17:19:44.216Z,2.97
2019-02-08T17:22:12.922Z,2.80
2019-02-08T17:24:42.545Z,3.03
2019-02-08T17:27:11.342Z,2.53
2019-02-08T17:29:40.084Z,2.83
2019-02-08T17:32:09.129Z,2.50
2019-02-08T17:34:37.814Z,3.43
2019-02-08T17:37:06.629Z,3.37
2019-02-08T17:39:35.384Z,3.37
2019-02-08T17:42:04.152Z,3.23
2019-02-08T17:44:32.817Z,3.57
2019-02-08T17:47:01.557Z,3.87
2019-02-08T17:49:30.258Z,4.63
2019-02-08T17:51:59.862Z,4.90
2019-02-08T17:54:28.564Z,5.30
2019-02-08T17:56:57.183Z,5.37
2019-02-08T17:59:25.941Z,5.60
2019-02-08T18:01:54.757Z,5.20
2019-02-08T18:04:23.485Z,4.30
2019-02-08T18:06:52.194Z,5.50
2019-02-08T18:09:20.891Z,5.57
2019-02-08T18:11:49.591Z,5.30
2019-02-08T18:14:18.277Z,5.73
2019-02-08T18:16:47.029Z,4.73
2019-02-08T18:19:15.696Z,5.27
2019-02-08T18:21:44.431Z,7.03
2019-02-08T18:24:13.146Z,6.63
2019-02-08T18:26:41.940Z,6.93
2019-02-08T18:29:10.677Z,5.93
2019-02-08T18:31:39.359Z,6.30
2019-02-08T18:34:08.108Z,5.90
2019-02-08T18:36:36.716Z,5.70
2019-02-08T18:39:06.679Z,5.03
2019-02-08T18:41:35.373Z,5.27
2019-02-08T18:44:04.379Z,5.47
2019-02-08T18:46:33.111Z,5.93
2019-02-08T18:49:01.800Z,5.87
2019-02-08T18:51:30.465Z,6.30
2019-02-08T18:53:59.422Z,5.47
2019-02-08T18:56:28.103Z,5.70
2019-02-08T18:58:56.774Z,5.83
2019-02-08T19:01:28.607Z,6.33
2019-02-08T19:03:57.434Z,6.00
2019-02-08T19:06:26.159Z,6.40
2019-02-08T19:08:54.897Z,5.80
2019-02-08T19:11:23.594Z,6.30
2019-02-08T19:13:52.300Z,6.67
2019-02-08T19:16:21.008Z,6.93
2019-02-08T19:18:49.699Z,6.43
2019-02-08T19:21:18.442Z,7.20
2019-02-08T19:23:47.197Z,7.30
2019-02-08T19:26:15.932Z,7.53
2019-02-08T19:28:44.700Z,8.53
2019-02-08T19:31:13.539Z,8.27
2019-02-08T19:33:42.454Z,6.47
2019-02-08T19:36:11.326Z,6.57
2019-02-08T19:38:40.046Z,6.10
2019-02-08T19:41:08.746Z,5.73
2019-02-08T19:43:37.676Z,5.27
2019-02-08T19:46:06.493Z,6.17
2019-02-08T19:48:35.363Z,5.47
2019-02-08T19:51:04.216Z,6.10
2019-02-08T19:53:33.062Z,6.07
2019-02-08T19:56:01.800Z,6.80
2019-02-08T19:58:34.470Z,6.17
2019-02-08T20:01:01.013Z,7.43
2019-02-08T20:03:29.704Z,7.10
2019-02-08T20:05:58.559Z,7.50
2019-02-08T20:08:27.257Z,7.00
2019-02-08T20:10:55.989Z,7.27
2019-02-08T20:13:24.656Z,6.70
2019-02-08T20:15:53.352Z,7.17
2019-02-08T20:18:22.231Z,6.40
2019-02-08T20:20:50.962Z,7.00
2019-02-08T20:23:19.724Z,6.67
2019-02-08T20:25:48.702Z,7.87
2019-02-08T20:28:17.392Z,6.90
2019-02-08T20:30:46.059Z,6.57
2019-02-08T20:33:14.856Z,6.57
2019-02-08T20:35:43.588Z,5.53
2019-02-08T20:38:12.353Z,6.53
2019-02-08T20:40:42.416Z,6.37
2019-02-08T20:43:11.169Z,7.20
2019-02-08T20:45:40.087Z,7.33
2019-02-08T20:48:10.074Z,7.50
2019-02-08T20:50:38.807Z,7.23
2019-02-08T20:53:07.533Z,6.80
2019-02-08T20:55:36.228Z,7.83
2019-02-08T20:58:06.489Z,7.83
2019-02-08T21:00:36.831Z,7.77
2019-02-08T21:03:10.139Z,8.37
2019-02-08T21:05:38.910Z,7.47
2019-02-08T21:08:08.140Z,9.27
2019-02-08T21:10:37.236Z,7.53
2019-02-08T21:13:06.705Z,8.00
2019-02-08T21:15:35.414Z,8.13
2019-02-08T21:18:04.930Z,8.17
2019-02-08T21:20:33.645Z,7.70
2019-02-08T21:23:02.313Z,9.20
2019-02-08T21:25:31.274Z,8.30
2019-02-08T21:27:59.957Z,7.83
2019-02-08T21:30:28.670Z,9.60
2019-02-08T21:32:57.525Z,8.53
2019-02-08T21:35:26.297Z,9.57
2019-02-08T21:37:54.985Z,8.90
2019-02-08T21:40:24.358Z,8.87
2019-02-08T21:42:53.080Z,8.90
2019-02-08T21:45:23.240Z,8.87
2019-02-08T21:47:51.986Z,10.07
2019-02-08T21:50:21.120Z,9.50
2019-02-08T21:52:49.826Z,9.40
2019-02-08T21:55:18.499Z,8.93
2019-02-08T21:57:47.324Z,9.33
2019-02-08T22:00:17.023Z,8.50
2019-02-08T22:02:45.836Z,9.07
2019-02-08T22:05:14.740Z,8.93
2019-02-08T22:07:43.467Z,8.80
2019-02-08T22:10:12.343Z,8.70
2019-02-08T22:12:41.182Z,8.10
2019-02-08T22:15:20.058Z,9.00
2019-02-08T22:17:48.866Z,8.50
2019-02-08T22:20:18.037Z,8.83
2019-02-08T22:22:46.801Z,8.77
2019-02-08T22:25:16.182Z,8.27
2019-02-08T22:27:45.224Z,9.53
2019-02-08T22:30:15.331Z,8.70
2019-02-08T23:10:38.996Z,10.43
2019-02-08T23:13:13.922Z,11.22
